createdAt,value
2022-12-17T00:01:14.682Z,117.53
2022-12-17T00:04:00.750Z,112.25
2022-12-17T00:06:46.872Z,103.38
2022-12-17T00:09:33.055Z,113.28
2022-12-17T00:12:18.975Z,109.32
2022-12-17T00:15:05.014Z,107.93
2022-12-17T00:17:50.996Z,108.97
2022-12-17T00:20:37.736Z,107.75
2022-12-17T00:23:27.123Z,111.28
2022-12-17T00:26:14.396Z,102.15
2022-12-17T00:29:00.346Z,102.45
2022-12-17T00:31:48.350Z,87.47
2022-12-17T00:34:34.624Z,111.22
2022-12-17T00:37:20.466Z,102.13
2022-12-17T00:40:06.687Z,101.10
2022-12-17T00:42:52.882Z,100.00
2022-12-17T00:45:49.972Z,97.93
2022-12-17T00:48:36.298Z,84.82
2022-12-17T00:51:22.482Z,86.60
2022-12-17T00:54:08.559Z,78.55
2022-12-17T00:56:54.550Z,85.35
2022-12-17T00:59:42.234Z,86.70
2022-12-17T01:02:28.475Z,89.65
2022-12-17T01:05:14.511Z,84.35
2022-12-17T01:08:01.593Z,90.70
2022-12-17T01:10:50.715Z,77.18
2022-12-17T01:13:37.019Z,97.63
2022-12-17T01:16:28.919Z,87.72
2022-12-17T01:19:15.062Z,80.47
2022-12-17T01:22:00.902Z,76.63
2022-12-17T01:24:46.966Z,85.97
2022-12-17T01:27:32.957Z,76.65
2022-12-17T01:30:19.131Z,84.75
2022-12-17T01:33:05.183Z,86.45
2022-12-17T01:35:51.213Z,92.78
2022-12-17T01:38:38.349Z,93.28
2022-12-17T01:41:24.566Z,90.28
2022-12-17T01:44:10.616Z,87.15
2022-12-17T01:47:01.051Z,90.25
2022-12-17T01:49:47.162Z,92.60
2022-12-17T01:52:33.081Z,90.63
2022-12-17T01:55:18.942Z,94.00
2022-12-17T01:58:05.098Z,96.80
2022-12-17T02:00:51.115Z,89.63
2022-12-17T02:03:37.554Z,94.72
2022-12-17T02:06:45.255Z,101.38
2022-12-17T02:09:50.976Z,95.43
2022-12-17T02:13:01.255Z,93.60
2022-12-17T02:16:13.564Z,100.32
2022-12-17T02:19:06.992Z,97.43
2022-12-17T02:21:53.038Z,93.95
2022-12-17T02:24:54.907Z,98.85
2022-12-17T02:27:40.978Z,101.80
2022-12-17T02:30:27.829Z,97.43
2022-12-17T02:33:13.601Z,101.38
2022-12-17T02:36:12.887Z,94.85
2022-12-17T02:38:59.074Z,90.65
2022-12-17T02:42:00.207Z,97.28
2022-12-17T02:44:47.403Z,89.43
2022-12-17T02:47:33.416Z,89.43
2022-12-17T02:50:19.353Z,102.13
2022-12-17T02:53:06.308Z,94.05
2022-12-17T02:55:53.202Z,88.45
2022-12-17T02:58:39.223Z,97.22
2022-12-17T03:01:25.521Z,98.72
2022-12-17T03:04:11.539Z,94.68
2022-12-17T03:07:14.325Z,88.28
2022-12-17T03:10:01.398Z,102.20
2022-12-17T03:12:49.320Z,102.43
2022-12-17T03:15:35.267Z,92.45
2022-12-17T03:18:21.423Z,95.53
2022-12-17T03:21:11.535Z,92.57
2022-12-17T03:23:59.164Z,101.53
2022-12-17T03:26:45.223Z,92.40
2022-12-17T03:29:31.371Z,89.88
2022-12-17T03:32:17.409Z,90.55
2022-12-17T03:35:03.584Z,96.72
2022-12-17T03:37:49.566Z,93.80
2022-12-17T03:40:35.475Z,91.30
2022-12-17T03:43:27.828Z,85.63
2022-12-17T03:46:14.064Z,101.43
2022-12-17T03:48:59.774Z,94.75
2022-12-17T03:51:45.697Z,100.70
2022-12-17T03:54:31.818Z,96.53
2022-12-17T03:57:17.844Z,90.40
2022-12-17T04:00:03.849Z,95.03
2022-12-17T04:02:58.177Z,92.25
2022-12-17T04:05:44.141Z,98.10
2022-12-17T04:08:30.141Z,81.40
2022-12-17T04:11:16.180Z,92.50
2022-12-17T04:14:02.213Z,95.97
2022-12-17T04:16:48.181Z,95.70
2022-12-17T04:19:34.231Z,86.80
2022-12-17T04:22:20.249Z,96.63
2022-12-17T04:25:06.077Z,89.95
2022-12-17T04:27:59.665Z,95.53
2022-12-17T04:30:45.739Z,89.70
2022-12-17T04:33:31.758Z,97.40
2022-12-17T04:36:17.839Z,92.97
2022-12-17T04:39:03.781Z,82.57
2022-12-17T04:41:49.804Z,95.57
2022-12-17T04:44:35.906Z,89.93
2022-12-17T04:47:22.038Z,82.47
2022-12-17T04:50:08.841Z,83.15
2022-12-17T04:52:54.761Z,80.75
2022-12-17T04:55:40.762Z,87.10
2022-12-17T04:58:26.767Z,100.35
2022-12-17T05:01:15.888Z,91.85
2022-12-17T05:04:01.853Z,90.85
2022-12-17T05:06:47.591Z,100.70
2022-12-17T05:09:33.670Z,94.10
2022-12-17T05:12:19.721Z,85.50
2022-12-17T05:15:05.692Z,90.05
2022-12-17T05:17:51.664Z,96.60
2022-12-17T05:20:37.698Z,91.32
2022-12-17T05:23:25.331Z,96.50
2022-12-17T05:26:45.159Z,96.75
2022-12-17T05:29:31.281Z,103.15
2022-12-17T05:32:17.319Z,102.95
2022-12-17T05:35:03.349Z,112.93
2022-12-17T05:37:49.199Z,120.70
2022-12-17T05:40:35.087Z,130.63
2022-12-17T05:43:28.220Z,123.93
2022-12-17T05:46:14.305Z,126.60
2022-12-17T05:49:06.179Z,122.18
2022-12-17T05:51:52.110Z,122.45
2022-12-17T05:54:38.334Z,123.30
2022-12-17T05:57:24.367Z,142.55
2022-12-17T06:00:10.297Z,122.78
2022-12-17T06:02:59.164Z,128.10
2022-12-17T06:05:45.485Z,133.25
2022-12-17T06:08:31.346Z,139.60
2022-12-17T06:11:18.493Z,144.50
2022-12-17T06:14:05.174Z,137.60
2022-12-17T06:16:51.093Z,138.60
2022-12-17T06:19:37.083Z,140.05
2022-12-17T06:22:23.158Z,149.55
2022-12-17T06:25:09.083Z,139.98
2022-12-17T06:27:55.091Z,132.73
2022-12-17T06:30:44.096Z,132.43
2022-12-17T06:33:30.226Z,135.15
2022-12-17T06:36:22.151Z,139.93
2022-12-17T06:39:22.365Z,140.25
2022-12-17T06:42:08.346Z,130.57
2022-12-17T06:44:54.847Z,132.50
2022-12-17T06:47:41.066Z,137.32
2022-12-17T06:50:26.853Z,134.43
2022-12-17T06:53:23.633Z,146.73
2022-12-17T06:56:09.657Z,134.60
2022-12-17T06:58:55.553Z,137.27
2022-12-17T07:01:40.986Z,126.72
2022-12-17T07:04:27.023Z,137.63
2022-12-17T07:07:12.996Z,142.98
2022-12-17T07:09:59.054Z,137.50
2022-12-17T07:12:44.801Z,138.45
2022-12-17T07:15:30.821Z,135.32
2022-12-17T07:18:21.008Z,131.15
2022-12-17T07:21:06.968Z,135.35
2022-12-17T07:23:52.992Z,136.40
2022-12-17T07:26:39.164Z,134.18
2022-12-17T07:29:24.977Z,128.00
2022-12-17T07:32:11.099Z,127.38
2022-12-17T07:34:57.203Z,131.50
2022-12-17T07:37:43.283Z,130.68
2022-12-17T07:40:29.683Z,134.77
2022-12-17T07:43:15.490Z,118.32
2022-12-17T07:46:01.694Z,140.73
2022-12-17T07:48:47.840Z,131.73
2022-12-17T07:51:33.967Z,123.55
2022-12-17T07:54:20.259Z,117.32
2022-12-17T07:57:06.232Z,131.57
2022-12-17T07:59:52.310Z,126.63
2022-12-17T08:02:38.279Z,131.23
2022-12-17T08:05:24.461Z,123.80
2022-12-17T08:08:10.430Z,136.73
2022-12-17T08:10:56.397Z,127.80
2022-12-17T08:13:42.286Z,136.57
2022-12-17T08:16:28.552Z,121.70
2022-12-17T08:19:14.575Z,133.85
2022-12-17T08:22:00.795Z,121.65
2022-12-17T08:24:46.896Z,128.30
2022-12-17T08:27:32.799Z,131.48
2022-12-17T08:30:18.875Z,124.20
2022-12-17T08:33:04.924Z,126.88
2022-12-17T08:35:50.889Z,131.35
2022-12-17T08:38:36.872Z,125.95
2022-12-17T08:41:22.751Z,138.38
2022-12-17T08:44:08.573Z,130.45
2022-12-17T08:46:54.449Z,141.75
2022-12-17T08:49:40.508Z,135.40
2022-12-17T08:52:26.511Z,138.23
2022-12-17T08:55:12.148Z,148.95
2022-12-17T08:57:59.116Z,131.68
2022-12-17T09:00:45.193Z,128.75
2022-12-17T09:03:31.179Z,127.75
2022-12-17T09:06:17.130Z,140.68
2022-12-17T09:09:03.056Z,145.05
2022-12-17T09:11:49.018Z,137.43
2022-12-17T09:14:35.022Z,136.35
2022-12-17T09:17:20.976Z,133.80
2022-12-17T09:20:06.961Z,139.20
2022-12-17T09:22:53.081Z,137.75
2022-12-17T09:25:39.087Z,138.57
2022-12-17T09:28:25.053Z,132.52
2022-12-17T09:31:13.547Z,137.13
2022-12-17T09:33:59.480Z,144.98
2022-12-17T09:36:51.047Z,142.65
2022-12-17T09:39:37.584Z,137.63
2022-12-17T09:43:01.311Z,138.80
2022-12-17T09:45:56.398Z,140.95
2022-12-17T09:49:20.981Z,135.90
2022-12-17T09:52:07.017Z,146.32
2022-12-17T09:55:02.028Z,141.35
2022-12-17T09:57:51.975Z,141.10
2022-12-17T10:00:39.031Z,139.35
2022-12-17T10:03:34.543Z,152.55
2022-12-17T10:06:29.790Z,132.95
2022-12-17T10:12:04.598Z,147.40
2022-12-17T10:14:50.317Z,144.80
2022-12-17T10:17:41.881Z,154.45
2022-12-17T10:21:09.307Z,157.30
2022-12-17T10:23:55.085Z,140.18
2022-12-17T10:26:44.246Z,150.77
2022-12-17T10:29:47.654Z,156.77
2022-12-17T10:32:33.855Z,142.98
2022-12-17T10:35:25.771Z,144.02
2022-12-17T10:38:11.888Z,145.82
2022-12-17T10:40:57.900Z,147.93
2022-12-17T10:43:46.414Z,148.35
2022-12-17T10:46:45.715Z,151.38
2022-12-17T10:49:39.663Z,141.43
2022-12-17T10:52:49.671Z,149.75
2022-12-17T10:55:46.813Z,149.65
2022-12-17T10:58:40.772Z,152.65
2022-12-17T11:01:29.861Z,155.60
2022-12-17T11:04:19.000Z,148.35
2022-12-17T11:07:07.808Z,150.25
2022-12-17T11:10:09.590Z,150.07
2022-12-17T11:13:09.917Z,152.52
2022-12-17T11:16:10.696Z,138.90
2022-12-17T11:19:22.830Z,162.02
2022-12-17T11:22:30.208Z,162.82
2022-12-17T11:25:43.244Z,153.07
2022-12-17T11:28:41.740Z,144.52
2022-12-17T11:31:36.548Z,141.43
2022-12-17T11:34:49.307Z,156.68
2022-12-17T11:37:40.867Z,143.43
2022-12-17T11:40:52.474Z,138.05
2022-12-17T11:44:25.482Z,151.32
2022-12-17T11:47:39.488Z,136.55
2022-12-17T11:50:40.201Z,155.93
2022-12-17T11:54:16.696Z,150.55
2022-12-17T11:57:24.872Z,148.05
2022-12-17T12:00:34.651Z,167.18
2022-12-17T12:03:30.758Z,159.32
2022-12-17T12:06:18.470Z,154.70
2022-12-17T12:09:32.385Z,152.88
2022-12-17T12:12:24.047Z,139.10
2022-12-17T12:15:45.625Z,140.43
2022-12-17T12:19:32.595Z,142.27
2022-12-17T12:22:43.774Z,149.50
2022-12-17T12:25:50.483Z,145.55
2022-12-17T12:28:47.851Z,137.20
2022-12-17T12:32:13.779Z,149.50
2022-12-17T12:40:50.418Z,136.38
2022-12-17T12:43:48.214Z,134.00
2022-12-17T12:46:47.489Z,125.43
2022-12-17T12:49:51.414Z,134.93
2022-12-17T12:52:42.304Z,123.75
2022-12-17T12:55:28.257Z,132.88
2022-12-17T12:58:19.808Z,123.10
2022-12-17T13:01:08.508Z,124.85
2022-12-17T13:04:01.961Z,116.75
2022-12-17T13:06:55.432Z,122.43
2022-12-17T13:09:34.214Z,114.57
2022-12-17T13:12:04.858Z,124.50
2022-12-17T13:14:46.124Z,116.80
2022-12-17T13:17:16.557Z,118.53
2022-12-17T13:20:01.754Z,116.75
2022-12-17T13:22:33.695Z,115.97
2022-12-17T13:25:19.659Z,121.28
2022-12-17T13:27:47.133Z,115.95
2022-12-17T13:30:17.339Z,116.00
2022-12-17T13:33:22.449Z,112.78
2022-12-17T13:36:10.476Z,116.43
2022-12-17T13:39:00.077Z,117.10
2022-12-17T13:41:42.710Z,109.10
2022-12-17T13:44:25.811Z,112.40
2022-12-17T13:46:55.190Z,114.28
2022-12-17T13:49:28.152Z,110.20
2022-12-17T13:52:09.643Z,104.97
2022-12-17T13:54:38.969Z,112.82
2022-12-17T13:57:13.181Z,109.13
2022-12-17T13:59:40.945Z,103.43
2022-12-17T14:02:28.351Z,113.22
2022-12-17T14:05:04.157Z,108.20
2022-12-17T14:07:37.537Z,107.32
2022-12-17T14:10:05.739Z,112.88
2022-12-17T14:12:35.412Z,105.47
2022-12-17T14:15:08.607Z,107.57
2022-12-17T14:17:42.606Z,105.07
2022-12-17T14:20:18.769Z,99.90
2022-12-17T14:22:59.346Z,104.05
2022-12-17T14:25:30.973Z,111.43
2022-12-17T14:28:02.559Z,107.07
2022-12-17T14:31:02.708Z,95.80
2022-12-17T14:33:30.978Z,87.82
2022-12-17T14:36:08.907Z,90.00
2022-12-17T14:38:38.687Z,91.88
2022-12-17T14:41:35.905Z,95.35
2022-12-17T14:44:03.257Z,85.70
2022-12-17T14:46:30.719Z,87.72
2022-12-17T14:49:02.464Z,86.95
2022-12-17T14:51:40.383Z,95.55
2022-12-17T14:54:32.233Z,95.72
2022-12-17T14:56:59.994Z,90.30
2022-12-17T14:59:34.866Z,86.72
2022-12-17T15:02:28.829Z,86.30
2022-12-17T15:05:01.432Z,93.60
2022-12-17T15:07:30.931Z,85.47
2022-12-17T15:09:58.406Z,96.72
2022-12-17T15:12:25.898Z,97.93
2022-12-17T15:14:53.092Z,92.00
2022-12-17T15:17:20.279Z,92.97
2022-12-17T15:19:51.369Z,93.57
2022-12-17T15:22:22.865Z,97.13
2022-12-17T15:24:50.017Z,93.88
2022-12-17T15:27:17.666Z,93.25
2022-12-17T15:29:45.966Z,90.22
2022-12-17T15:32:23.435Z,95.88
2022-12-17T15:34:50.669Z,94.70
2022-12-17T15:37:23.977Z,95.28
2022-12-17T15:39:52.961Z,100.32
2022-12-17T15:42:38.772Z,90.70
2022-12-17T15:45:06.799Z,91.20
2022-12-17T15:47:33.983Z,86.90
2022-12-17T15:50:02.251Z,97.75
2022-12-17T15:52:29.420Z,85.30
2022-12-17T15:54:56.599Z,97.63
2022-12-17T15:57:23.844Z,92.40
2022-12-17T15:59:51.814Z,88.93
2022-12-17T16:02:19.184Z,81.28
2022-12-17T16:04:46.489Z,82.25
2022-12-17T16:07:16.759Z,81.20
2022-12-17T16:09:46.102Z,81.15
2022-12-17T16:12:13.303Z,77.68
2022-12-17T16:14:40.533Z,79.15
2022-12-17T16:17:07.794Z,75.95
2022-12-17T16:19:34.916Z,68.43
2022-12-17T16:22:02.163Z,78.20
2022-12-17T16:24:29.316Z,72.88
2022-12-17T16:27:02.429Z,75.68
2022-12-17T16:29:31.706Z,73.22
2022-12-17T16:31:59.806Z,73.60
2022-12-17T16:34:27.904Z,77.22
2022-12-17T16:36:57.335Z,77.53
2022-12-17T16:39:24.530Z,80.78
2022-12-17T16:41:51.707Z,77.55
2022-12-17T16:44:19.045Z,77.78
2022-12-17T16:46:46.595Z,82.03
2022-12-17T16:49:23.790Z,79.32
2022-12-17T16:51:51.816Z,81.53
2022-12-17T16:54:21.740Z,78.30
2022-12-17T16:56:49.188Z,80.70
2022-12-17T16:59:16.646Z,76.20
2022-12-17T17:01:46.770Z,75.97
2022-12-17T17:04:15.111Z,78.57
2022-12-17T17:07:09.686Z,71.15
2022-12-17T17:09:37.457Z,76.00
2022-12-17T17:12:05.027Z,76.13
2022-12-17T17:14:32.194Z,80.78
2022-12-17T17:16:59.547Z,83.00
2022-12-17T17:19:26.687Z,70.85
2022-12-17T17:21:54.177Z,74.50
2022-12-17T17:24:23.871Z,78.95
2022-12-17T17:26:51.376Z,76.05
2022-12-17T17:29:21.212Z,79.43
2022-12-17T17:34:39.641Z,73.95
2022-12-17T17:39:37.358Z,72.72
2022-12-17T17:42:04.765Z,71.47
2022-12-17T17:44:32.064Z,75.65
2022-12-17T17:46:59.327Z,81.65
2022-12-17T17:49:26.647Z,77.20
2022-12-17T17:52:11.334Z,74.78
2022-12-17T17:54:42.530Z,79.30
2022-12-17T17:57:10.158Z,73.53
2022-12-17T17:59:39.351Z,73.68
2022-12-17T18:02:07.132Z,71.03
2022-12-17T18:04:37.525Z,72.50
2022-12-17T18:09:54.723Z,77.45
2022-12-17T18:12:40.534Z,83.65
2022-12-17T18:15:17.292Z,67.97
2022-12-17T18:17:47.570Z,77.03
2022-12-17T18:20:14.891Z,78.10
2022-12-17T18:22:42.416Z,81.32
2022-12-17T18:25:10.551Z,89.60
2022-12-17T18:27:38.693Z,91.53
2022-12-17T18:30:06.527Z,71.93
2022-12-17T18:32:33.688Z,82.43
2022-12-17T18:35:00.819Z,78.78
2022-12-17T18:37:28.033Z,77.32
2022-12-17T18:39:55.265Z,79.95
2022-12-17T18:42:41.119Z,78.80
2022-12-17T18:45:08.746Z,79.65
2022-12-17T18:47:35.889Z,81.38
2022-12-17T18:50:03.158Z,73.30
2022-12-17T18:52:30.321Z,78.13
2022-12-17T18:54:57.460Z,82.72
2022-12-17T18:57:24.596Z,81.55
2022-12-17T18:59:51.791Z,78.28
2022-12-17T19:02:19.165Z,76.65
2022-12-17T19:04:46.359Z,85.78
2022-12-17T19:07:13.514Z,83.10
2022-12-17T19:09:42.281Z,76.63
2022-12-17T19:12:09.614Z,78.63
2022-12-17T19:14:36.933Z,77.05
2022-12-17T19:17:05.134Z,79.38
2022-12-17T19:19:32.447Z,76.32
2022-12-17T19:22:00.427Z,75.82
2022-12-17T19:24:27.905Z,83.00
2022-12-17T19:26:55.154Z,79.07
2022-12-17T19:29:22.513Z,95.18
2022-12-17T19:31:50.022Z,76.55
2022-12-17T19:34:18.534Z,77.40
2022-12-17T19:36:46.024Z,77.95
2022-12-17T19:39:19.209Z,79.25
2022-12-17T19:41:46.738Z,76.28
2022-12-17T19:44:15.405Z,81.70
2022-12-17T19:46:42.815Z,91.47
2022-12-17T19:49:14.380Z,79.43
2022-12-17T19:51:44.093Z,80.75
2022-12-17T19:54:13.790Z,80.13
2022-12-17T19:56:41.157Z,79.40
2022-12-17T19:59:09.683Z,75.57
2022-12-17T20:01:43.012Z,77.32
2022-12-17T20:04:12.502Z,74.65
2022-12-17T20:06:39.656Z,68.57
2022-12-17T20:09:06.933Z,75.82
2022-12-17T20:11:35.053Z,78.53
2022-12-17T20:14:16.318Z,76.53
2022-12-17T20:16:51.715Z,71.05
2022-12-17T20:19:21.824Z,73.25
2022-12-17T20:21:50.107Z,77.30
2022-12-17T20:24:17.557Z,68.30
2022-12-17T20:26:45.204Z,73.80
2022-12-17T20:29:12.440Z,72.10
2022-12-17T20:31:39.762Z,77.30
2022-12-17T20:34:08.173Z,62.72
2022-12-17T20:36:35.589Z,84.60
2022-12-17T20:39:05.563Z,80.43
2022-12-17T20:41:33.140Z,70.95
2022-12-17T20:44:04.399Z,80.70
2022-12-17T20:46:38.132Z,63.55
2022-12-17T20:49:05.662Z,71.43
2022-12-17T20:51:33.162Z,73.97
2022-12-17T20:54:00.932Z,71.63
2022-12-17T20:56:32.619Z,66.30
2022-12-17T20:59:08.658Z,68.78
2022-12-17T21:01:36.582Z,69.20
2022-12-17T21:04:04.228Z,64.63
2022-12-17T21:06:36.598Z,66.82
2022-12-17T21:09:04.046Z,71.05
2022-12-17T21:11:32.241Z,75.78
2022-12-17T21:14:07.068Z,68.93
2022-12-17T21:16:34.878Z,76.95
2022-12-17T21:19:02.394Z,71.65
2022-12-17T21:21:31.671Z,76.70
2022-12-17T21:23:59.205Z,67.13
2022-12-17T21:26:34.476Z,74.95
2022-12-17T21:29:02.745Z,59.38
2022-12-17T21:31:50.409Z,65.20
2022-12-17T21:34:22.505Z,64.60
2022-12-17T21:36:50.429Z,59.67
2022-12-17T21:39:18.191Z,69.25
2022-12-17T21:42:05.483Z,76.22
2022-12-17T21:44:32.702Z,69.72
2022-12-17T21:47:00.097Z,72.75
2022-12-17T21:49:27.372Z,65.72
2022-12-17T21:51:59.127Z,69.45
2022-12-17T21:54:26.373Z,66.07
2022-12-17T21:56:53.607Z,66.20
2022-12-17T21:59:20.822Z,66.95
2022-12-17T22:01:48.067Z,68.22
2022-12-17T22:04:15.342Z,68.85
2022-12-17T22:06:58.504Z,75.60
2022-12-17T22:09:43.362Z,66.78
2022-12-17T22:12:37.635Z,67.97
2022-12-17T22:15:07.394Z,67.28
2022-12-17T22:17:35.242Z,69.00
2022-12-17T22:20:03.038Z,70.35
2022-12-17T22:22:30.306Z,65.55
2022-12-17T22:24:59.204Z,73.03
2022-12-17T22:27:30.891Z,73.80
2022-12-17T22:30:16.886Z,75.13
2022-12-17T22:33:24.507Z,76.30
2022-12-17T22:37:45.129Z,82.68
2022-12-17T22:42:32.027Z,69.30
2022-12-17T22:44:32.403Z,68.85
2022-12-17T22:44:51.678Z,72.15
2022-12-17T22:47:20.153Z,70.13
2022-12-17T22:49:47.272Z,66.47
2022-12-17T22:52:14.657Z,62.75
2022-12-17T22:54:44.685Z,71.03
2022-12-17T22:57:12.358Z,64.13
2022-12-17T22:59:59.548Z,65.63
2022-12-17T23:02:27.038Z,70.63
2022-12-17T23:04:54.252Z,64.65
2022-12-17T23:07:23.650Z,68.85
2022-12-17T23:09:54.122Z,64.35
2022-12-17T23:12:40.129Z,66.47
2022-12-17T23:15:07.946Z,78.43
2022-12-17T23:17:35.504Z,75.63
2022-12-17T23:20:02.700Z,75.47
2022-12-17T23:22:30.024Z,72.82
2022-12-17T23:24:57.281Z,70.97
2022-12-17T23:27:24.542Z,78.03
2022-12-17T23:29:51.725Z,81.07
2022-12-17T23:32:18.852Z,79.35
2022-12-17T23:34:45.983Z,85.68
2022-12-17T23:37:13.178Z,89.93
2022-12-17T23:39:40.330Z,79.63
2022-12-17T23:42:07.683Z,81.72
2022-12-17T23:44:34.959Z,84.85
2022-12-17T23:47:02.243Z,80.13
2022-12-17T23:49:29.521Z,79.38
2022-12-17T23:51:56.805Z,85.70
2022-12-17T23:54:24.804Z,87.35
2022-12-17T23:56:52.049Z,90.28
2022-12-17T23:59:19.253Z,81.85
